Time;durP1;ratioP1;P1;durP2;ratioP2;P2;SDS_P1;SDS_P2;PMS_P1;PMS_P2;Temp;Humidity;BMP_temperature;BMP_pressure;BME280_temperature;BME280_humidity;BME280_pressure;Samples;Min_cycle;Max_cycle;Signal;HPM_P1;HPM_P2
2023/06/08 00:01:07;;;;;;;15.13;7.18;;;;;;;;;;5117363;27;20039;-82
2023/06/08 00:03:33;;;;;;;15.02;7.13;;;;;;;;;;5100582;27;20051;-82
2023/06/08 00:06:00;;;;;;;16.10;8.55;;;;;;;;;;5100285;27;20074;-83
2023/06/08 00:08:26;;;;;;;19.15;7.57;;;;;;;;;;5083451;27;20080;-82
2023/06/08 00:10:52;;;;;;;14.90;7.50;;;;;;;;;;5100434;27;20396;-82
2023/06/08 00:13:18;;;;;;;15.35;9.35;;;;;;;;;;5116988;27;20480;-84
2023/06/08 00:15:44;;;;;;;14.90;8.52;;;;;;;;;;5116968;27;20088;-82
2023/06/08 00:18:11;;;;;;;20.90;8.18;;;;;;;;;;5117016;27;20135;-81
2023/06/08 00:20:39;;;;;;;17.77;8.68;;;;;;;;;;5117202;27;20466;-83
2023/06/08 00:23:05;;;;;;;17.25;10.27;;;;;;;;;;5116946;27;20497;-83
2023/06/08 00:25:31;;;;;;;25.20;10.02;;;;;;;;;;5116912;27;20050;-85
2023/06/08 00:27:57;;;;;;;17.38;8.82;;;;;;;;;;5083110;27;20050;-84
2023/06/08 00:30:23;;;;;;;18.55;10.02;;;;;;;;;;5099945;27;20134;-83
2023/06/08 00:32:49;;;;;;;17.40;10.57;;;;;;;;;;5099847;27;20043;-83
2023/06/08 00:35:15;;;;;;;23.15;9.95;;;;;;;;;;5116494;27;20059;-81
2023/06/08 00:37:42;;;;;;;21.13;10.30;;;;;;;;;;5100079;27;20399;-82
2023/06/08 00:40:08;;;;;;;24.40;11.43;;;;;;;;;;5116754;27;20410;-82
2023/06/08 00:42:35;;;;;;;24.67;10.75;;;;;;;;;;5099853;27;20513;-82
2023/06/08 00:45:01;;;;;;;21.38;10.38;;;;;;;;;;5099384;27;20039;-84
2023/06/08 00:47:27;;;;;;;21.40;10.52;;;;;;;;;;5116472;27;20039;-83
2023/06/08 00:49:53;;;;;;;16.27;9.88;;;;;;;;;;5116430;27;20134;-82
2023/06/08 00:52:20;;;;;;;12.75;7.47;;;;;;;;;;5116368;27;20049;-83
2023/06/08 00:54:48;;;;;;;14.15;7.72;;;12.30;99.90;;;;;;5116316;27;20047;-82
2023/06/08 00:57:16;;;;;;;13.27;7.38;;;;;;;;;;5116278;27;20040;-81
2023/06/08 00:59:42;;;;;;;12.10;7.30;;;;;;;;;;5098707;27;20502;-82
2023/06/08 01:02:08;;;;;;;15.93;8.15;;;;;;;;;;5116533;27;20043;-82
2023/06/08 01:04:35;;;;;;;19.08;8.20;;;;;;;;;;5099134;27;20054;-81
2023/06/08 01:07:33;;;;;;;17.88;9.07;;;12.40;99.90;;;;;;5116130;27;20047;-82
2023/06/08 01:10:10;;;;;;;16.60;7.93;;;12.30;99.90;;;;;;5100058;27;20066;-83
2023/06/08 01:12:56;;;;;;;16.48;8.82;;;;;;;;;;5116448;27;20074;-81
2023/06/08 01:15:25;;;;;;;25.20;8.82;;;;;;;;;;5116043;27;20246;-82
2023/06/08 01:17:52;;;;;;;14.18;7.97;;;;;;;;;;5099093;27;20039;-82
2023/06/08 01:20:24;;;;;;;11.52;6.90;;;;;;;;;;5116149;27;20039;-81
2023/06/08 01:22:56;;;;;;;18.55;7.25;;;;;;;;;;5098844;27;20564;-81
2023/06/08 01:25:26;;;;;;;18.23;6.97;;;12.30;99.90;;;;;;5115906;28;20096;-81
2023/06/08 01:27:58;;;;;;;14.10;7.38;;;;;;;;;;5099112;27;20043;-81
2023/06/08 01:30:25;;;;;;;12.68;7.50;;;;;;;;;;5099456;27;20039;-82
2023/06/08 01:32:51;;;;;;;13.85;7.70;;;;;;;;;;5115749;28;20039;-82
2023/06/08 01:35:17;;;;;;;18.55;7.28;;;12.30;99.90;;;;;;5098784;27;20051;-81
2023/06/08 01:37:50;;;;;;;11.93;7.38;;;12.30;99.90;;;;;;5065294;28;20411;-81
2023/06/08 01:40:34;;;;;;;18.10;7.10;;;12.20;99.90;;;;;;5099400;28;20043;-81
2023/06/08 01:43:01;;;;;;;14.73;6.65;;;;;;;;;;5115715;28;20128;-85
2023/06/08 01:45:31;;;;;;;13.60;6.57;;;12.20;99.90;;;;;;5115525;28;20039;-83
2023/06/08 01:48:02;;;;;;;13.68;5.50;;;12.30;99.90;;;;;;5115564;28;20075;-81
2023/06/08 01:50:29;;;;;;;11.48;6.55;;;;;;;;;;5098301;28;20047;-82
2023/06/08 01:52:56;;;;;;;16.30;6.50;;;;;;;;;;5115883;28;20108;-81
2023/06/08 01:55:27;;;;;;;15.27;6.55;;;;;;;;;;5081829;28;20158;-82
2023/06/08 01:57:54;;;;;;;17.95;7.47;;;;;;;;;;5098547;28;20058;-82
2023/06/08 02:00:21;;;;;;;13.43;6.72;;;12.30;99.90;;;;;;5115459;28;20043;-81
2023/06/08 02:02:47;;;;;;;14.20;7.57;;;;;;;;;;5098538;28;20050;-81
2023/06/08 02:05:15;;;;;;;11.40;7.93;;;12.30;99.90;;;;;;5081659;28;20047;-82
2023/06/08 02:07:42;;;;;;;21.70;8.23;;;;;;;;;;5115601;28;20125;-82
2023/06/08 02:10:09;;;;;;;16.40;8.85;;;;;;;;;;5115558;28;20039;-81
2023/06/08 02:12:35;;;;;;;15.07;8.45;;;;;;;;;;5085905;27;20089;-82
2023/06/08 02:15:01;;;;;;;18.83;9.40;;;;;;;;;;5102806;27;20039;-80
2023/06/08 02:17:29;;;;;;;19.63;9.90;;;;;;;;;;5102582;27;20088;-81
2023/06/08 02:19:55;;;;;;;15.65;7.63;;;;;;;;;;5119749;27;20130;-83
2023/06/08 02:22:21;;;;;;;11.18;7.15;;;;;;;;;;5102853;27;20075;-81
2023/06/08 02:24:48;;;;;;;14.13;9.45;;;;;;;;;;5119330;27;20054;-81
2023/06/08 02:27:15;;;;;;;15.52;7.93;;;12.00;99.90;;;;;;5119611;27;20123;-81
2023/06/08 02:29:41;;;;;;;16.83;7.93;;;12.40;99.90;;;;;;5119356;27;20039;-81
2023/06/08 02:32:08;;;;;;;17.05;7.75;;;;;;;;;;5085470;27;20031;-82
2023/06/08 02:34:36;;;;;;;16.27;7.43;;;12.30;99.90;;;;;;5102429;27;20099;-84
2023/06/08 02:37:03;;;;;;;18.55;7.35;;;;;;;;;;5102458;27;20376;-81
2023/06/08 02:39:29;;;;;;;19.13;7.40;;;;;;;;;;5102287;27;20448;-82
2023/06/08 02:41:55;;;;;;;12.05;6.57;;;;;;;;;;5085420;27;20035;-84
2023/06/08 02:44:21;;;;;;;11.07;5.93;;;;;;;;;;5102034;27;20108;-82
2023/06/08 02:46:47;;;;;;;15.48;8.38;;;;;;;;;;5102235;27;20047;-84
2023/06/08 02:49:13;;;;;;;9.35;6.78;;;;;;;;;;5101977;27;20089;-82
2023/06/08 02:51:40;;;;;;;17.10;7.50;;;;;;;;;;5101950;27;20039;-81
2023/06/08 02:54:06;;;;;;;17.00;7.22;;;;;;;;;;5102035;27;20570;-81
2023/06/08 02:56:32;;;;;;;13.65;6.43;;;;;;;;;;5101770;27;20092;-80
2023/06/08 02:58:58;;;;;;;15.73;6.82;;;;;;;;;;5102026;27;20445;-81
2023/06/08 03:01:25;;;;;;;18.15;7.88;;;;;;;;;;5084890;27;20039;-82
2023/06/08 03:03:51;;;;;;;17.52;7.68;;;;;;;;;;5137189;27;20085;-81
2023/06/08 03:06:18;;;;;;;14.68;6.85;;;;;;;;;;5118703;27;20043;-81
2023/06/08 03:08:53;;;;;;;13.13;6.57;;;;;;;;;;5101704;27;20035;-81
2023/06/08 03:11:23;;;;;;;9.43;5.47;;;;;;;;;;5118819;27;20410;-81
2023/06/08 03:13:49;;;;;;;15.93;6.57;;;;;;;;;;5118485;27;20035;-82
2023/06/08 03:16:15;;;;;;;10.20;5.88;;;;;;;;;;5101916;27;20057;-84
2023/06/08 03:18:44;;;;;;;9.27;5.18;;;;;;;;;;5136953;27;20384;-85
2023/06/08 03:21:12;;;;;;;16.30;6.18;;;;;;;;;;5119049;27;20094;-81
2023/06/08 03:23:38;;;;;;;13.20;4.65;;;;;;;;;;5101368;27;20050;-81
2023/06/08 03:26:05;;;;;;;10.98;5.47;;;;;;;;;;5119165;27;20043;-80
2023/06/08 03:28:31;;;;;;;16.85;4.95;;;;;;;;;;5118847;27;20039;-81
2023/06/08 03:30:57;;;;;;;9.30;4.70;;;;;;;;;;5101889;27;20396;-84
2023/06/08 03:33:24;;;;;;;18.30;6.10;;;;;;;;;;5102096;27;20050;-82
2023/06/08 03:35:50;;;;;;;10.30;4.32;;;;;;;;;;5102033;27;20051;-83
2023/06/08 03:38:16;;;;;;;19.08;5.97;;;;;;;;;;5101476;27;20487;-83
2023/06/08 03:40:42;;;;;;;15.85;5.22;;;;;;;;;;5101247;27;20168;-86
2023/06/08 03:43:08;;;;;;;12.30;5.10;;;;;;;;;;5117967;27;20042;-83
2023/06/08 03:45:34;;;;;;;15.65;6.20;;;;;;;;;;5083925;27;20050;-83
2023/06/08 03:48:00;;;;;;;10.85;5.55;;;;;;;;;;5100753;27;20043;-83
2023/06/08 03:50:26;;;;;;;13.45;6.03;;;;;;;;;;5118641;27;20126;-82
2023/06/08 03:52:53;;;;;;;9.32;5.07;;;;;;;;;;5117601;27;20047;-83
2023/06/08 03:55:19;;;;;;;13.60;5.32;;;;;;;;;;5100420;27;20092;-84
2023/06/08 03:57:45;;;;;;;16.10;6.88;;;;;;;;;;5100492;27;20043;-85
2023/06/08 04:00:11;;;;;;;13.70;5.40;;;;;;;;;;5100806;27;20051;-83
2023/06/08 04:02:38;;;;;;;12.35;5.75;;;;;;;;;;5100431;27;20122;-82
2023/06/08 04:05:06;;;;;;;18.40;5.03;;;;;;;;;;5117229;27;20035;-83
2023/06/08 04:07:34;;;;;;;13.05;5.75;;;12.30;99.90;;;;;;5100512;27;20039;-82
2023/06/08 04:10:00;;;;;;;10.88;5.38;;;;;;;;;;5117275;27;20129;-83
2023/06/08 04:12:26;;;;;;;18.85;5.32;;;;;;;;;;5117193;27;20035;-83
2023/06/08 04:14:52;;;;;;;9.70;5.30;;;;;;;;;;5100228;27;20039;-82
2023/06/08 04:17:18;;;;;;;17.73;5.32;;;;;;;;;;5100357;27;20392;-82
2023/06/08 04:19:44;;;;;;;9.10;4.78;;;12.20;99.90;;;;;;5117412;27;20039;-84
2023/06/08 04:22:10;;;;;;;13.90;5.20;;;;;;;;;;5100130;27;20578;-81
2023/06/08 04:24:38;;;;;;;10.48;4.85;;;;;;;;;;5099954;27;20157;-82
2023/06/08 04:27:08;;;;;;;12.35;5.65;;;;;;;;;;5100219;27;20056;-82
2023/06/08 04:29:34;;;;;;;14.75;5.85;;;;;;;;;;5116793;27;20043;-84
2023/06/08 04:32:00;;;;;;;15.43;6.18;;;;;;;;;;5100134;27;20039;-82
2023/06/08 04:34:26;;;;;;;13.73;5.32;;;;;;;;;;5098315;27;20246;-83
2023/06/08 04:36:53;;;;;;;17.10;5.75;;;;;;;;;;5082819;27;20039;-81
2023/06/08 04:39:19;;;;;;;14.98;5.65;;;;;;;;;;5099822;27;20516;-82
2023/06/08 04:41:45;;;;;;;15.70;6.70;;;;;;;;;;5099969;27;20437;-81
2023/06/08 04:44:18;;;;;;;10.13;4.63;;;;;;;;;;5099928;27;20065;-80
2023/06/08 04:46:45;;;;;;;12.25;5.40;;;;;;;;;;5100591;27;20460;-82
2023/06/08 04:49:17;;;;;;;12.65;5.35;;;;;;;;;;5117188;27;20054;-82
2023/06/08 04:51:46;;;;;;;11.52;6.05;;;;;;;;;;5099908;27;20483;-82
2023/06/08 04:54:13;;;;;;;12.75;5.88;;;;;;;;;;5100694;27;20074;-82
2023/06/08 04:56:41;;;;;;;15.18;6.75;;;12.60;99.90;;;;;;5116591;27;20054;-83
2023/06/08 04:59:10;;;;;;;9.73;4.80;;;;;;;;;;5084217;27;20039;-82
2023/06/08 05:01:37;;;;;;;14.20;6.00;;;12.60;99.90;;;;;;5099728;27;20518;-81
2023/06/08 05:04:07;;;;;;;15.38;5.95;;;;;;;;;;5135089;27;20506;-82
2023/06/08 05:06:34;;;;;;;17.90;5.70;;;12.60;99.90;;;;;;5100290;27;20439;-83
2023/06/08 05:09:01;;;;;;;13.82;5.85;;;;;;;;;;5116509;27;20125;-81
2023/06/08 05:11:27;;;;;;;12.48;6.43;;;;;;;;;;5082660;27;20052;-81
2023/06/08 05:13:53;;;;;;;11.70;6.57;;;;;;;;;;5082674;27;20047;-81
2023/06/08 05:16:19;;;;;;;16.90;6.53;;;;;;;;;;5116724;27;20050;-82
2023/06/08 05:18:45;;;;;;;17.13;6.47;;;;;;;;;;5082813;27;20518;-81
2023/06/08 05:21:11;;;;;;;11.65;6.32;;;;;;;;;;5082678;27;20035;-85
2023/06/08 05:23:38;;;;;;;13.27;5.32;;;;;;;;;;5082722;27;20553;-81
2023/06/08 05:26:04;;;;;;;11.88;5.63;;;;;;;;;;5082581;27;20047;-82
2023/06/08 05:28:30;;;;;;;17.52;6.35;;;;;;;;;;5116826;28;20043;-82
2023/06/08 05:30:56;;;;;;;13.35;5.47;;;;;;;;;;5116818;27;20043;-83
2023/06/08 05:33:22;;;;;;;16.42;5.38;;;;;;;;;;5116828;28;20039;-82
2023/06/08 05:35:48;;;;;;;10.82;4.90;;;;;;;;;;5099456;27;20114;-82
2023/06/08 05:38:15;;;;;;;13.68;5.82;;;;;;;;;;5083374;28;20031;-82
2023/06/08 05:40:42;;;;;;;10.25;5.72;;;;;;;;;;5117052;28;20042;-81
2023/06/08 05:43:08;;;;;;;15.77;5.97;;;;;;;;;;5100455;28;20043;-81
2023/06/08 05:45:35;;;;;;;10.93;5.78;;;;;;;;;;5100133;28;20047;-82
2023/06/08 05:48:01;;;;;;;10.88;5.95;;;;;;;;;;5117378;28;20078;-82
2023/06/08 05:50:27;;;;;;;16.65;6.32;;;;;;;;;;5100410;28;20491;-85
2023/06/08 05:52:54;;;;;;;19.75;6.03;;;;;;;;;;5100272;28;20077;-81
2023/06/08 05:55:20;;;;;;;17.38;6.97;;;;;;;;;;5100173;28;20043;-83
2023/06/08 05:57:46;;;;;;;16.73;6.00;;;;;;;;;;5099862;28;20096;-81
2023/06/08 06:00:15;;;;;;;16.00;5.57;;;;;;;;;;5100357;28;20050;-81
2023/06/08 06:02:41;;;;;;;9.05;5.57;;;;;;;;;;5083761;28;20043;-81
2023/06/08 06:05:13;;;;;;;7.75;4.93;;;;;;;;;;5100965;28;20100;-81
2023/06/08 06:07:39;;;;;;;10.90;5.65;;;;;;;;;;5117266;28;20051;-84
2023/06/08 06:10:11;;;;;;;13.38;5.78;;;;;;;;;;5101149;28;20376;-81
2023/06/08 06:12:37;;;;;;;9.05;4.85;;;;;;;;;;5099950;28;20051;-83
2023/06/08 06:15:04;;;;;;;11.85;5.30;;;;;;;;;;5100067;28;20072;-82
2023/06/08 06:17:30;;;;;;;13.52;5.15;;;;;;;;;;5083017;28;20043;-82
2023/06/08 06:19:57;;;;;;;14.48;5.60;;;;;;;;;;5117053;28;20039;-82
2023/06/08 06:22:24;;;;;;;18.08;5.75;;;;;;;;;;5116851;28;20471;-82
2023/06/08 06:24:50;;;;;;;23.90;6.25;;;;;;;;;;5083424;28;20044;-82
2023/06/08 06:27:19;;;;;;;12.20;5.15;;;;;;;;;;5100344;28;20480;-84
2023/06/08 06:29:46;;;;;;;29.23;5.70;;;;;;;;;;5082633;28;20068;-82
2023/06/08 06:32:12;;;;;;;11.75;4.68;;;;;;;;;;5100216;28;20039;-82
2023/06/08 06:34:38;;;;;;;12.75;5.40;;;;;;;;;;5079385;28;20060;-80
2023/06/08 06:37:05;;;;;;;13.02;5.75;;;;;;;;;;5113357;28;20571;-81
2023/06/08 06:39:31;;;;;;;13.98;4.80;;;;;;;;;;5096444;28;20035;-82
2023/06/08 06:42:00;;;;;;;9.45;4.80;;;;;;;;;;5096522;28;20500;-83
2023/06/08 06:44:26;;;;;;;11.57;5.60;;;;;;;;;;5096396;28;20130;-83
2023/06/08 06:46:56;;;;;;;16.08;5.07;;;;;;;;;;5096847;28;20427;-81
2023/06/08 06:49:22;;;;;;;16.98;5.03;;;;;;;;;;5079589;28;20048;-82
2023/06/08 06:51:48;;;;;;;19.48;5.15;;;;;;;;;;5079812;28;20048;-84
2023/06/08 06:54:15;;;;;;;16.92;4.97;;;;;;;;;;5096397;28;20082;-81
2023/06/08 06:56:41;;;;;;;12.63;4.95;;;;;;;;;;5096279;28;20100;-81
2023/06/08 06:59:09;;;;;;;12.32;4.68;;;;;;;;;;5082146;28;20048;-83
2023/06/08 07:01:38;;;;;;;17.67;5.00;;;;;;;;;;5117255;28;20074;-81
2023/06/08 07:04:05;;;;;;;13.35;5.32;;;14.60;99.90;;;;;;5082660;28;20126;-81
2023/06/08 07:06:32;;;;;;;11.52;5.40;;;;;;;;;;5099603;28;20051;-84
2023/06/08 07:08:58;;;;;;;14.20;4.72;;;;;;;;;;5099127;28;20488;-81
2023/06/08 07:11:24;;;;;;;11.35;5.53;;;;;;;;;;5082322;28;20048;-81
2023/06/08 07:13:51;;;;;;;18.90;5.10;;;;;;;;;;5099067;28;20099;-82
2023/06/08 07:16:17;;;;;;;12.27;5.60;;;;;;;;;;5099285;28;20039;-82
2023/06/08 07:18:44;;;;;;;10.80;5.38;;;;;;;;;;5100704;28;20043;-81
2023/06/08 07:21:12;;;;;;;11.65;4.95;;;;;;;;;;5116678;28;20130;-81
2023/06/08 07:23:38;;;;;;;12.30;4.88;;;;;;;;;;5099658;28;20043;-83
2023/06/08 07:26:04;;;;;;;11.85;5.00;;;;;;;;;;5082625;28;20399;-81
2023/06/08 07:28:30;;;;;;;9.48;4.60;;;14.80;99.90;;;;;;5116131;28;20484;-82
2023/06/08 07:30:56;;;;;;;10.18;4.63;;;;;;;;;;5099916;28;20093;-82
2023/06/08 07:33:22;;;;;;;22.60;4.45;;;;;;;;;;5115626;28;20122;-83
2023/06/08 07:35:48;;;;;;;22.65;5.45;;;;;;;;;;5081812;28;20124;-82
2023/06/08 07:38:15;;;;;;;8.75;4.68;;;;;;;;;;5082385;28;20082;-81
2023/06/08 07:40:40;;;;;;;14.23;5.35;;;15.60;99.90;;;;;;5116391;28;20492;-82
2023/06/08 07:43:07;;;;;;;10.80;4.93;;;;;;;;;;5081863;28;20043;-84
2023/06/08 07:45:33;;;;;;;15.23;5.65;;;;;;;;;;5098925;28;20441;-82
2023/06/08 07:47:59;;;;;;;13.63;4.85;;;;;;;;;;5115955;28;20036;-81
2023/06/08 07:50:25;;;;;;;12.90;5.55;;;;;;;;;;5098636;28;20047;-80
2023/06/08 07:52:51;;;;;;;18.17;6.00;;;;;;;;;;5115748;28;20101;-81
2023/06/08 07:55:17;;;;;;;10.00;4.80;;;;;;;;;;5081686;28;20393;-81
2023/06/08 07:57:44;;;;;;;12.20;4.90;;;;;;;;;;5098535;28;20156;-81
2023/06/08 08:00:12;;;;;;;17.85;5.55;;;;;;;;;;5081547;28;20043;-81
2023/06/08 08:02:38;;;;;;;20.75;5.70;;;;;;;;;;5099228;28;20123;-83
2023/06/08 08:05:04;;;;;;;10.13;5.07;;;;;;;;;;5081620;28;20040;-81
2023/06/08 08:07:31;;;;;;;8.95;4.53;;;;;;;;;;5099165;28;20068;-81
2023/06/08 08:09:57;;;;;;;8.70;5.10;;;;;;;;;;5097784;28;20047;-82
2023/06/08 08:12:23;;;;;;;7.90;4.75;;;;;;;;;;5098290;28;20047;-81
2023/06/08 08:14:50;;;;;;;7.72;4.20;;;;;;;;;;5098323;28;20195;-82
2023/06/08 08:17:16;;;;;;;19.77;6.75;;;;;;;;;;5080828;28;20047;-82
2023/06/08 08:19:42;;;;;;;10.32;4.93;;;;;;;;;;5081350;28;20048;-81
2023/06/08 08:22:08;;;;;;;9.02;4.90;;;;;;;;;;5081519;28;20071;-82
2023/06/08 08:24:35;;;;;;;16.38;5.05;;;;;;;;;;5080994;28;20065;-83
2023/06/08 08:27:02;;;;;;;8.88;4.45;;;;;;;;;;5081433;28;20081;-81
2023/06/08 08:29:28;;;;;;;7.95;3.95;;;;;;;;;;5098096;28;20054;-83
2023/06/08 08:31:55;;;;;;;12.40;4.03;;;;;;;;;;5081106;28;20480;-81
2023/06/08 08:34:21;;;;;;;9.05;4.78;;;;;;;;;;5114713;28;20091;-82
2023/06/08 08:36:47;;;;;;;12.02;3.90;;;;;;;;;;5097830;28;20055;-83
2023/06/08 08:39:14;;;;;;;9.50;4.00;;;;;;;;;;5097643;28;20047;-80
2023/06/08 08:41:41;;;;;;;13.73;4.20;;;16.60;99.90;;;;;;5114608;28;20512;-81
2023/06/08 08:44:15;;;;;;;12.88;4.50;;;16.80;99.90;;;;;;5114213;28;20043;-81
2023/06/08 08:46:42;;;;;;;11.57;5.35;;;;;;;;;;5114220;28;20062;-82
2023/06/08 08:49:15;;;;;;;10.27;4.10;;;17.00;99.90;;;;;;5097487;28;20052;-81
2023/06/08 08:51:52;;;;;;;9.23;4.07;;;17.00;99.90;;;;;;5097413;28;20047;-83
2023/06/08 08:54:25;;;;;;;12.18;5.35;;;;;;;;;;5097440;28;20474;-81
2023/06/08 08:56:55;;;;;;;7.55;4.00;;;16.80;99.90;;;;;;5098027;28;20079;-81
2023/06/08 08:59:24;;;;;;;5.97;3.47;;;16.90;99.90;;;;;;5096974;28;20040;-81
2023/06/08 09:01:51;;;;;;;11.10;3.85;;;;;;;;;;5080017;28;20073;-81
2023/06/08 09:04:17;;;;;;;10.68;3.80;;;;;;;;;;5080301;28;20442;-81
2023/06/08 09:06:50;;;;;;;12.68;4.10;;;17.20;99.90;;;;;;5097460;28;20587;-81
2023/06/08 09:09:19;;;;;;;14.60;4.73;;;;;;;;;;5097105;28;20043;-80
2023/06/08 09:12:05;;;;;;;13.32;5.18;;;17.20;99.90;;;;;;5097160;28;20070;-83
2023/06/08 09:14:31;;;;;;;9.90;4.93;;;;;;;;;;5113972;28;20130;-81
2023/06/08 09:17:01;;;;;;;11.30;4.00;;;;;;;;;;5097193;28;20043;-81
2023/06/08 09:19:28;;;;;;;10.32;4.70;;;;;;;;;;5081174;28;20047;-81
2023/06/08 09:21:55;;;;;;;17.08;5.45;;;;;;;;;;5096859;28;20122;-85
2023/06/08 09:24:22;;;;;;;11.57;4.28;;;;;;;;;;5114021;28;20540;-81
2023/06/08 09:26:59;;;;;;;11.82;4.32;;;17.50;99.90;;;;;;5115202;28;20039;-82
2023/06/08 09:29:39;;;;;;;8.55;4.20;;;;;;;;;;5098547;28;20169;-81
2023/06/08 09:32:06;;;;;;;10.50;4.57;;;17.50;99.90;;;;;;5096571;28;20075;-82
2023/06/08 09:34:33;;;;;;;8.77;3.97;;;;;;;;;;5112544;28;20104;-81
2023/06/08 09:37:10;;;;;;;11.13;4.65;;;17.60;99.90;;;;;;5095440;28;20051;-81
2023/06/08 09:39:40;;;;;;;7.88;4.22;;;17.70;99.90;;;;;;5062252;28;20090;-81
2023/06/08 09:42:06;;;;;;;9.18;3.70;;;;;;;;;;5095458;28;20051;-81
2023/06/08 09:44:32;;;;;;;9.57;3.63;;;;;;;;;;5078749;28;20043;-81
2023/06/08 09:47:00;;;;;;;8.05;4.00;;;;;;;;;;5095454;28;20047;-80
2023/06/08 09:49:27;;;;;;;6.22;3.58;;;;;;;;;;5095689;28;20151;-82
2023/06/08 09:51:53;;;;;;;10.88;4.00;;;;;;;;;;5112462;28;20044;-82
2023/06/08 09:54:20;;;;;;;10.27;3.42;;;18.20;99.90;;;;;;5095642;28;20128;-81
2023/06/08 09:56:54;;;;;;;12.88;4.10;;;17.90;99.90;;;;;;5078630;28;20457;-81
2023/06/08 09:59:32;;;;;;;7.35;3.63;;;18.00;99.90;;;;;;5112536;28;20043;-81
2023/06/08 10:02:03;;;;;;;8.30;3.28;;;18.10;99.90;;;;;;5112194;28;20126;-81
2023/06/08 10:04:40;;;;;;;7.55;3.30;;;18.40;99.90;;;;;;5095074;28;20040;-80
2023/06/08 10:07:15;;;;;;;9.32;4.18;;;18.10;99.90;;;;;;5112174;28;20044;-81
2023/06/08 10:09:47;;;;;;;7.68;3.17;;;18.10;99.90;;;;;;5112204;28;20039;-81
2023/06/08 10:12:14;;;;;;;8.40;3.45;;;;;;;;;;5111890;28;20054;-81
2023/06/08 10:14:40;;;;;;;11.77;4.40;;;18.30;99.90;;;;;;5095146;28;20043;-80
2023/06/08 10:17:07;;;;;;;8.57;3.72;;;18.30;99.90;;;;;;5078674;28;20040;-81
2023/06/08 10:19:33;;;;;;;10.45;3.15;;;;;;;;;;5095514;28;20071;-82
2023/06/08 10:22:00;;;;;;;6.60;3.85;;;18.30;99.90;;;;;;5094929;28;20130;-83
2023/06/08 10:24:29;;;;;;;5.80;3.75;;;18.40;99.90;;;;;;5062353;28;20055;-80
2023/06/08 10:27:28;;;;;;;10.85;4.10;;;18.50;99.90;;;;;;5095516;28;20035;-82
2023/06/08 10:29:59;;;;;;;9.80;4.90;;;18.60;99.90;;;;;;5112004;28;20047;-80
2023/06/08 10:32:38;;;;;;;11.38;4.07;;;18.80;99.90;;;;;;5095249;28;20123;-80
2023/06/08 10:35:06;;;;;;;12.52;5.03;;;18.90;99.90;;;;;;5098755;28;20051;-81
2023/06/08 10:37:34;;;;;;;12.18;5.43;;;18.70;99.90;;;;;;5082250;28;20062;-80
2023/06/08 10:40:08;;;;;;;11.68;5.03;;;19.00;99.90;;;;;;5116088;28;20047;-80
2023/06/08 10:42:34;;;;;;;16.05;5.00;;;18.80;99.90;;;;;;5098834;28;20050;-81
2023/06/08 10:45:02;;;;;;;8.25;4.68;;;18.80;99.90;;;;;;5115943;28;20134;-80
2023/06/08 10:47:31;;;;;;;12.90;4.57;;;;;;;;;;5099177;28;20097;-81
2023/06/08 10:50:06;;;;;;;10.50;4.38;;;19.30;99.90;;;;;;5099186;28;20051;-81
2023/06/08 10:52:45;;;;;;;7.47;4.18;;;19.10;99.90;;;;;;5098828;28;20130;-81
2023/06/08 10:55:13;;;;;;;10.45;4.03;;;18.80;99.90;;;;;;5099471;28;20047;-81
2023/06/08 10:57:45;;;;;;;8.57;3.88;;;18.90;99.90;;;;;;5116269;28;20052;-81
2023/06/08 11:00:31;;;;;;;9.65;3.67;;;19.00;99.90;;;;;;5099492;28;20048;-81
2023/06/08 11:03:06;;;;;;;7.80;3.88;;;19.30;99.90;;;;;;5116812;28;20048;-81
2023/06/08 11:05:37;;;;;;;10.77;4.53;;;19.40;99.90;;;;;;5099377;28;20036;-81
2023/06/08 11:08:07;;;;;;;12.00;4.95;;;19.30;99.90;;;;;;5116532;28;20420;-80
2023/06/08 11:10:33;;;;;;;13.75;4.90;;;;;;;;;;5116790;28;20085;-82
2023/06/08 11:13:08;;;;;;;11.48;5.10;;;19.20;99.90;;;;;;5099029;28;20051;-81
2023/06/08 11:15:38;;;;;;;10.57;4.80;;;19.30;99.90;;;;;;5115851;28;20126;-80
2023/06/08 11:18:04;;;;;;;10.95;4.55;;;;;;;;;;5116226;28;20091;-80
2023/06/08 11:20:32;;;;;;;8.00;3.10;;;;;;;;;;5082779;28;20134;-80
2023/06/08 11:23:00;;;;;;;11.82;4.32;;;19.40;99.90;;;;;;5099243;28;20043;-80
2023/06/08 11:25:27;;;;;;;6.68;3.22;;;;;;;;;;5099038;28;20043;-82
2023/06/08 11:27:55;;;;;;;6.57;3.20;;;;;;;;;;5099037;28;20235;-81
2023/06/08 11:30:22;;;;;;;11.85;3.72;;;19.70;99.60;;;;;;5116019;28;20050;-81
2023/06/08 11:32:51;;;;;;;11.20;3.85;;;19.60;99.50;;;;;;5117473;28;20101;-81
2023/06/08 11:35:23;;;;;;;13.38;4.28;;;19.80;99.90;;;;;;5115445;28;20055;-81
2023/06/08 11:37:59;;;;;;;7.70;4.30;;;19.80;99.90;;;;;;5098965;28;20044;-82
2023/06/08 11:40:25;;;;;;;13.70;4.28;;;;;;;;;;5098401;28;20054;-82
2023/06/08 11:42:52;;;;;;;6.80;3.38;;;;;;;;;;5098594;28;20037;-82
2023/06/08 11:45:18;;;;;;;6.78;3.45;;;19.60;99.90;;;;;;5097865;28;20047;-81
2023/06/08 11:47:45;;;;;;;5.93;3.22;;;19.90;98.20;;;;;;5098601;28;20044;-83
2023/06/08 11:50:12;;;;;;;12.40;4.35;;;19.90;97.90;;;;;;5115108;28;20052;-81
2023/06/08 11:52:42;;;;;;;9.68;3.40;;;;;;;;;;5081688;28;20157;-81
2023/06/08 11:55:16;;;;;;;7.78;4.18;;;19.90;99.60;;;;;;5098855;28;20495;-81
2023/06/08 11:57:56;;;;;;;10.00;4.13;;;20.10;99.90;;;;;;5098977;28;20392;-80
2023/06/08 12:00:31;;;;;;;8.10;3.47;;;19.90;99.70;;;;;;5097945;28;20048;-81
2023/06/08 12:02:58;;;;;;;11.38;4.63;;;19.80;97.50;;;;;;5081395;28;20048;-80
2023/06/08 12:05:28;;;;;;;5.13;3.35;;;19.90;98.00;;;;;;5081570;28;20788;-80
2023/06/08 12:08:00;;;;;;;8.90;3.45;;;19.90;97.10;;;;;;5098746;28;20047;-81
2023/06/08 12:10:37;;;;;;;10.10;3.85;;;20.00;95.20;;;;;;5098008;28;20031;-80
2023/06/08 12:13:15;;;;;;;6.47;2.88;;;19.60;97.80;;;;;;5115092;28;20060;-81
2023/06/08 12:15:45;;;;;;;14.90;3.20;;;19.70;97.20;;;;;;5114016;28;20399;-80
2023/06/08 12:18:12;;;;;;;9.15;3.13;;;20.00;96.10;;;;;;5097199;28;20078;-81
2023/06/08 12:20:39;;;;;;;7.15;3.13;;;20.00;96.70;;;;;;5097175;28;20047;-81
2023/06/08 12:23:05;;;;;;;4.53;2.55;;;20.20;98.70;;;;;;5113915;28;20048;-81
2023/06/08 12:25:33;;;;;;;10.43;2.95;;;;;;;;;;5096955;28;20090;-81
2023/06/08 12:28:00;;;;;;;10.52;2.75;;;;;;;;;;5097196;28;20039;-81
2023/06/08 12:30:26;;;;;;;6.40;2.67;;;20.00;96.70;;;;;;5114146;28;20047;-81
2023/06/08 12:32:53;;;;;;;4.13;2.20;;;;;;;;;;5113763;28;20071;-81
2023/06/08 12:35:29;;;;;;;5.13;2.53;;;20.40;94.60;;;;;;5113335;28;20104;-82
2023/06/08 12:37:55;;;;;;;6.75;3.72;;;;;;;;;;5096683;28;20046;-81
2023/06/08 12:40:24;;;;;;;7.53;2.70;;;;;;;;;;5114371;28;20052;-82
2023/06/08 12:42:50;;;;;;;3.63;2.67;;;;;;;;;;5113340;28;20035;-82
2023/06/08 12:45:20;;;;;;;8.82;3.03;;;20.30;95.20;;;;;;5096751;28;20403;-82
2023/06/08 12:47:46;;;;;;;6.85;2.75;;;;;;;;;;5096292;28;20039;-84
2023/06/08 12:50:13;;;;;;;10.60;2.88;;;;;;;;;;5096586;28;20134;-83
2023/06/08 12:52:39;;;;;;;7.03;2.97;;;;;;;;;;5113344;28;20126;-81
2023/06/08 12:55:06;;;;;;;5.72;3.53;;;20.50;93.60;;;;;;5095861;28;20055;-82
2023/06/08 12:57:34;;;;;;;4.20;2.42;;;;;;;;;;5078303;28;20050;-82
2023/06/08 13:00:00;;;;;;;7.00;2.63;;;;;;;;;;5096395;28;20047;-83
2023/06/08 13:02:30;;;;;;;5.80;2.45;;;20.40;94.80;;;;;;5113606;28;20496;-83
2023/06/08 13:04:56;;;;;;;10.07;3.00;;;20.20;94.60;;;;;;5113329;28;20126;-83
2023/06/08 13:07:22;;;;;;;9.57;2.67;;;;;;;;;;5096104;28;20063;-83
2023/06/08 13:09:52;;;;;;;7.38;3.20;;;;;;;;;;5096163;28;20096;-83
2023/06/08 13:12:18;;;;;;;7.55;2.97;;;;;;;;;;5080299;28;20126;-83
2023/06/08 13:14:45;;;;;;;4.80;2.92;;;20.60;93.90;;;;;;5096183;28;20043;-82
2023/06/08 13:17:27;;;;;;;7.75;2.80;;;20.40;91.90;;;;;;5098553;28;20036;-83
2023/06/08 13:19:59;;;;;;;9.55;3.70;;;20.30;93.60;;;;;;5081048;28;20050;-84
2023/06/08 13:22:25;;;;;;;6.10;3.35;;;;;;;;;;5079420;28;20078;-83
2023/06/08 13:24:51;;;;;;;5.75;2.72;;;;;;;;;;5079648;28;20464;-83
2023/06/08 13:27:17;;;;;;;7.43;2.55;;;20.50;93.30;;;;;;5114535;28;20061;-83
2023/06/08 13:29:48;;;;;;;8.43;2.60;;;20.70;93.40;;;;;;5114611;28;20047;-82
2023/06/08 13:32:14;;;;;;;5.07;2.50;;;;;;;;;;5096626;28;20046;-81
2023/06/08 13:34:40;;;;;;;5.82;2.47;;;;;;;;;;5112747;28;20100;-82
2023/06/08 13:37:06;;;;;;;5.45;2.50;;;;;;;;;;5095621;28;20047;-81
2023/06/08 13:39:33;;;;;;;6.53;3.78;;;;;;;;;;5095635;28;20035;-81
2023/06/08 13:41:59;;;;;;;6.63;3.30;;;;;;;;;;5112927;28;20044;-81
2023/06/08 13:44:25;;;;;;;6.53;3.20;;;;;;;;;;5112583;28;20073;-81
2023/06/08 13:46:53;;;;;;;12.20;4.50;;;;;;;;;;5095849;28;20039;-81
2023/06/08 13:49:19;;;;;;;21.90;4.65;;;;;;;;;;5113722;28;20389;-81
2023/06/08 13:51:47;;;;;;;11.05;4.38;;;;;;;;;;5095789;28;20412;-81
2023/06/08 13:54:15;;;;;;;10.60;4.05;;;;;;;;;;5112828;28;20122;-81
2023/06/08 13:56:41;;;;;;;8.05;4.03;;;21.00;92.20;;;;;;5113109;28;20120;-81
2023/06/08 13:59:13;;;;;;;12.18;4.28;;;;;;;;;;5096517;28;20400;-82
2023/06/08 14:01:39;;;;;;;5.68;3.35;;;20.90;89.10;;;;;;5079094;28;20546;-81
2023/06/08 14:04:05;;;;;;;6.65;3.53;;;;;;;;;;5112173;28;20070;-83